sensor_id;sensor_type;location;lat;lon;timestamp;pressure;altitude;pressure_sealevel;temperature;humidity
36598;BME280;22607;49.550;11.940;2023-03-03T00:01:34;96978.13;;;1.55;75.52
36598;BME280;22607;49.550;11.940;2023-03-03T00:04:01;96976.97;;;1.60;74.58
36598;BME280;22607;49.550;11.940;2023-03-03T00:06:28;96979.25;;;1.40;78.06
36598;BME280;22607;49.550;11.940;2023-03-03T00:08:56;96977.81;;;1.36;78.22
36598;BME280;22607;49.550;11.940;2023-03-03T00:11:23;96975.13;;;1.37;77.28
36598;BME280;22607;49.550;11.940;2023-03-03T00:13:53;96966.31;;;1.40;77.07
36598;BME280;22607;49.550;11.940;2023-03-03T00:16:34;96975.22;;;1.36;76.08
36598;BME280;22607;49.550;11.940;2023-03-03T00:19:06;96971.00;;;1.35;74.13
36598;BME280;22607;49.550;11.940;2023-03-03T00:21:45;96967.19;;;1.27;76.90
36598;BME280;22607;49.550;11.940;2023-03-03T00:24:23;96977.53;;;1.27;77.18
36598;BME280;22607;49.550;11.940;2023-03-03T00:26:51;96981.06;;;1.26;75.89
36598;BME280;22607;49.550;11.940;2023-03-03T00:32:21;96982.44;;;1.19;75.84
36598;BME280;22607;49.550;11.940;2023-03-03T00:34:50;96986.91;;;1.17;76.05
36598;BME280;22607;49.550;11.940;2023-03-03T00:39:49;96982.59;;;1.04;73.72
36598;BME280;22607;49.550;11.940;2023-03-03T00:42:16;96995.31;;;1.08;72.71
36598;BME280;22607;49.550;11.940;2023-03-03T00:44:51;96987.41;;;1.22;73.08
36598;BME280;22607;49.550;11.940;2023-03-03T00:47:36;96991.53;;;1.25;73.90
36598;BME280;22607;49.550;11.940;2023-03-03T00:52:39;96996.84;;;1.10;74.60
36598;BME280;22607;49.550;11.940;2023-03-03T00:55:07;96991.09;;;1.07;74.21
36598;BME280;22607;49.550;11.940;2023-03-03T00:57:33;96988.56;;;1.18;72.95
36598;BME280;22607;49.550;11.940;2023-03-03T01:00:00;96990.47;;;1.27;72.19
36598;BME280;22607;49.550;11.940;2023-03-03T01:02:27;96984.91;;;1.21;73.22
36598;BME280;22607;49.550;11.940;2023-03-03T01:04:53;96993.53;;;1.21;73.90
36598;BME280;22607;49.550;11.940;2023-03-03T01:07:23;96991.59;;;1.12;74.69
36598;BME280;22607;49.550;11.940;2023-03-03T01:09:49;96991.88;;;1.20;74.97
36598;BME280;22607;49.550;11.940;2023-03-03T01:12:16;96983.31;;;1.07;76.52
36598;BME280;22607;49.550;11.940;2023-03-03T01:14:44;96976.13;;;0.86;76.98
36598;BME280;22607;49.550;11.940;2023-03-03T01:17:11;96982.34;;;0.83;77.54
36598;BME280;22607;49.550;11.940;2023-03-03T01:19:38;96985.25;;;0.78;77.00
36598;BME280;22607;49.550;11.940;2023-03-03T01:22:04;96974.91;;;0.78;75.68
36598;BME280;22607;49.550;11.940;2023-03-03T01:24:31;96981.94;;;0.89;75.74
36598;BME280;22607;49.550;11.940;2023-03-03T01:26:57;96979.75;;;0.83;77.30
36598;BME280;22607;49.550;11.940;2023-03-03T01:29:24;96976.47;;;0.81;77.14
36598;BME280;22607;49.550;11.940;2023-03-03T01:31:50;96975.22;;;0.87;75.77
36598;BME280;22607;49.550;11.940;2023-03-03T01:34:17;96974.69;;;0.82;75.04
36598;BME280;22607;49.550;11.940;2023-03-03T01:36:43;96977.81;;;0.87;74.96
36598;BME280;22607;49.550;11.940;2023-03-03T01:39:10;96976.03;;;0.87;75.39
36598;BME280;22607;49.550;11.940;2023-03-03T01:41:38;96976.91;;;0.99;74.52
36598;BME280;22607;49.550;11.940;2023-03-03T01:44:05;96973.38;;;1.00;73.92
36598;BME280;22607;49.550;11.940;2023-03-03T01:49:14;96968.22;;;1.00;74.12
36598;BME280;22607;49.550;11.940;2023-03-03T01:52:10;96972.88;;;1.08;77.52
36598;BME280;22607;49.550;11.940;2023-03-03T01:54:46;96979.00;;;0.94;79.17
36598;BME280;22607;49.550;11.940;2023-03-03T01:57:22;96978.22;;;0.81;81.08
36598;BME280;22607;49.550;11.940;2023-03-03T01:59:52;96973.91;;;0.55;82.63
36598;BME280;22607;49.550;11.940;2023-03-03T02:02:20;96976.09;;;0.61;81.92
36598;BME280;22607;49.550;11.940;2023-03-03T02:04:48;96981.06;;;0.51;81.62
36598;BME280;22607;49.550;11.940;2023-03-03T02:07:16;96968.97;;;0.52;79.50
36598;BME280;22607;49.550;11.940;2023-03-03T02:10:03;96974.66;;;0.44;78.83
36598;BME280;22607;49.550;11.940;2023-03-03T02:12:37;96964.63;;;0.52;79.40
36598;BME280;22607;49.550;11.940;2023-03-03T02:15:31;96964.28;;;0.70;76.89
36598;BME280;22607;49.550;11.940;2023-03-03T02:18:02;96957.13;;;0.74;77.55
36598;BME280;22607;49.550;11.940;2023-03-03T02:23:01;96962.81;;;0.79;78.32
36598;BME280;22607;49.550;11.940;2023-03-03T02:25:58;96959.03;;;0.59;77.86
36598;BME280;22607;49.550;11.940;2023-03-03T02:28:31;96957.78;;;0.64;78.60
36598;BME280;22607;49.550;11.940;2023-03-03T02:30:59;96958.81;;;0.62;78.86
36598;BME280;22607;49.550;11.940;2023-03-03T02:33:30;96956.56;;;0.57;79.14
36598;BME280;22607;49.550;11.940;2023-03-03T02:35:57;96962.97;;;0.51;78.39
36598;BME280;22607;49.550;11.940;2023-03-03T02:38:29;96960.09;;;0.56;79.01
36598;BME280;22607;49.550;11.940;2023-03-03T02:44:04;96959.44;;;0.52;79.88
36598;BME280;22607;49.550;11.940;2023-03-03T02:46:42;96956.34;;;0.47;79.82
36598;BME280;22607;49.550;11.940;2023-03-03T02:49:11;96957.94;;;0.37;80.84
36598;BME280;22607;49.550;11.940;2023-03-03T02:51:38;96960.31;;;0.27;80.99
36598;BME280;22607;49.550;11.940;2023-03-03T02:54:07;96961.16;;;0.28;81.59
36598;BME280;22607;49.550;11.940;2023-03-03T02:56:33;96969.63;;;0.04;83.96
36598;BME280;22607;49.550;11.940;2023-03-03T02:59:00;96965.06;;;0.07;84.02
36598;BME280;22607;49.550;11.940;2023-03-03T03:01:27;96966.94;;;0.18;84.83
36598;BME280;22607;49.550;11.940;2023-03-03T03:03:57;96973.44;;;0.11;84.33
36598;BME280;22607;49.550;11.940;2023-03-03T03:06:24;96973.75;;;0.06;86.20
36598;BME280;22607;49.550;11.940;2023-03-03T03:08:52;96980.16;;;0.01;84.92
36598;BME280;22607;49.550;11.940;2023-03-03T03:11:20;96978.50;;;-0.01;85.18
36598;BME280;22607;49.550;11.940;2023-03-03T03:13:47;96976.09;;;-0.04;85.18
36598;BME280;22607;49.550;11.940;2023-03-03T03:16:13;96965.25;;;-0.09;84.58
36598;BME280;22607;49.550;11.940;2023-03-03T03:18:40;96982.63;;;-0.11;85.12
36598;BME280;22607;49.550;11.940;2023-03-03T03:21:12;96985.41;;;-0.01;85.43
36598;BME280;22607;49.550;11.940;2023-03-03T03:23:39;96978.69;;;-0.04;84.66
36598;BME280;22607;49.550;11.940;2023-03-03T03:26:06;96982.84;;;0.12;83.94
36598;BME280;22607;49.550;11.940;2023-03-03T03:28:34;96974.38;;;0.10;82.76
36598;BME280;22607;49.550;11.940;2023-03-03T03:31:01;96980.28;;;0.12;82.43
36598;BME280;22607;49.550;11.940;2023-03-03T03:33:27;96980.97;;;0.14;82.37
36598;BME280;22607;49.550;11.940;2023-03-03T03:35:55;96993.19;;;0.12;81.39
36598;BME280;22607;49.550;11.940;2023-03-03T03:38:23;96997.94;;;0.18;81.86
36598;BME280;22607;49.550;11.940;2023-03-03T03:40:53;96994.00;;;0.25;80.84
36598;BME280;22607;49.550;11.940;2023-03-03T03:43:21;96991.72;;;0.21;80.96
36598;BME280;22607;49.550;11.940;2023-03-03T03:45:48;96989.16;;;0.21;81.01
36598;BME280;22607;49.550;11.940;2023-03-03T03:48:15;96977.06;;;0.21;80.92
36598;BME280;22607;49.550;11.940;2023-03-03T03:50:42;96977.03;;;0.08;81.51
36598;BME280;22607;49.550;11.940;2023-03-03T03:53:09;96982.84;;;0.12;81.71
36598;BME280;22607;49.550;11.940;2023-03-03T03:55:35;96983.13;;;0.20;81.21
36598;BME280;22607;49.550;11.940;2023-03-03T03:58:02;96974.78;;;0.30;80.93
36598;BME280;22607;49.550;11.940;2023-03-03T04:00:28;96979.31;;;0.26;80.50
36598;BME280;22607;49.550;11.940;2023-03-03T04:02:55;96988.72;;;0.14;80.99
36598;BME280;22607;49.550;11.940;2023-03-03T04:05:22;96989.16;;;0.08;81.52
36598;BME280;22607;49.550;11.940;2023-03-03T04:07:49;96987.78;;;0.02;81.52
36598;BME280;22607;49.550;11.940;2023-03-03T04:10:15;96992.97;;;0.02;81.85
36598;BME280;22607;49.550;11.940;2023-03-03T04:12:43;96990.91;;;0.07;81.64
36598;BME280;22607;49.550;11.940;2023-03-03T04:15:11;96987.19;;;-0.02;82.51
36598;BME280;22607;49.550;11.940;2023-03-03T04:17:38;96988.69;;;-0.12;83.21
36598;BME280;22607;49.550;11.940;2023-03-03T04:20:06;96994.09;;;-0.15;83.18
36598;BME280;22607;49.550;11.940;2023-03-03T04:22:33;96996.75;;;-0.30;83.61
36598;BME280;22607;49.550;11.940;2023-03-03T04:25:02;96995.47;;;-0.37;84.78
36598;BME280;22607;49.550;11.940;2023-03-03T04:27:31;97000.09;;;-0.42;86.83
36598;BME280;22607;49.550;11.940;2023-03-03T04:30:00;96995.66;;;-0.40;86.17
36598;BME280;22607;49.550;11.940;2023-03-03T04:32:26;97005.28;;;-0.29;85.64
36598;BME280;22607;49.550;11.940;2023-03-03T04:34:53;97004.78;;;-0.34;84.71
36598;BME280;22607;49.550;11.940;2023-03-03T04:37:32;97006.94;;;-0.28;84.43
36598;BME280;22607;49.550;11.940;2023-03-03T04:39:59;97004.97;;;-0.37;84.49
36598;BME280;22607;49.550;11.940;2023-03-03T04:42:27;97004.16;;;-0.38;84.95
36598;BME280;22607;49.550;11.940;2023-03-03T04:44:54;97001.66;;;-0.40;84.51
36598;BME280;22607;49.550;11.940;2023-03-03T04:47:21;96997.19;;;-0.50;86.74
36598;BME280;22607;49.550;11.940;2023-03-03T04:49:47;96997.59;;;-0.57;87.79
36598;BME280;22607;49.550;11.940;2023-03-03T04:52:14;96999.16;;;-0.54;89.09
36598;BME280;22607;49.550;11.940;2023-03-03T04:54:40;97000.84;;;-0.68;88.75
36598;BME280;22607;49.550;11.940;2023-03-03T04:57:08;97002.75;;;-0.57;86.90
36598;BME280;22607;49.550;11.940;2023-03-03T04:59:35;97005.69;;;-0.48;86.41
36598;BME280;22607;49.550;11.940;2023-03-03T05:02:02;97010.41;;;-0.55;86.39
36598;BME280;22607;49.550;11.940;2023-03-03T05:04:30;97012.88;;;-0.54;85.93
36598;BME280;22607;49.550;11.940;2023-03-03T05:06:57;97006.78;;;-0.52;86.02
36598;BME280;22607;49.550;11.940;2023-03-03T05:09:24;97001.78;;;-0.69;87.94
36598;BME280;22607;49.550;11.940;2023-03-03T05:11:50;97004.41;;;-0.56;86.40
36598;BME280;22607;49.550;11.940;2023-03-03T05:14:17;97009.28;;;-0.51;85.77
36598;BME280;22607;49.550;11.940;2023-03-03T05:16:43;97008.97;;;-0.46;86.11
36598;BME280;22607;49.550;11.940;2023-03-03T05:19:10;97015.56;;;-0.55;86.74
36598;BME280;22607;49.550;11.940;2023-03-03T05:21:37;97017.22;;;-0.54;85.90
36598;BME280;22607;49.550;11.940;2023-03-03T05:24:08;97012.31;;;-0.59;86.95
36598;BME280;22607;49.550;11.940;2023-03-03T05:26:35;97015.06;;;-0.75;87.73
36598;BME280;22607;49.550;11.940;2023-03-03T05:29:03;97017.00;;;-0.78;88.04
36598;BME280;22607;49.550;11.940;2023-03-03T05:31:29;97012.38;;;-0.73;88.81
36598;BME280;22607;49.550;11.940;2023-03-03T05:33:56;97020.50;;;-0.80;89.83
36598;BME280;22607;49.550;11.940;2023-03-03T05:36:23;97018.94;;;-0.82;89.70
36598;BME280;22607;49.550;11.940;2023-03-03T05:38:52;97027.72;;;-0.85;90.28
36598;BME280;22607;49.550;11.940;2023-03-03T05:41:19;97026.34;;;-0.90;91.33
36598;BME280;22607;49.550;11.940;2023-03-03T05:43:51;97028.53;;;-0.84;91.42
36598;BME280;22607;49.550;11.940;2023-03-03T05:46:18;97035.44;;;-0.85;91.03
36598;BME280;22607;49.550;11.940;2023-03-03T05:48:45;97042.25;;;-0.84;89.70
36598;BME280;22607;49.550;11.940;2023-03-03T05:51:12;97035.63;;;-0.88;91.11
36598;BME280;22607;49.550;11.940;2023-03-03T05:53:39;97021.81;;;-0.87;89.78
36598;BME280;22607;49.550;11.940;2023-03-03T05:56:06;97044.28;;;-0.89;90.26
36598;BME280;22607;49.550;11.940;2023-03-03T05:58:33;97036.03;;;-0.94;90.82
36598;BME280;22607;49.550;11.940;2023-03-03T06:01:00;97037.53;;;-1.04;91.96
36598;BME280;22607;49.550;11.940;2023-03-03T06:03:26;97047.34;;;-0.97;92.20
36598;BME280;22607;49.550;11.940;2023-03-03T06:05:53;97046.59;;;-0.99;91.92
36598;BME280;22607;49.550;11.940;2023-03-03T06:08:20;97053.13;;;-0.93;92.10
36598;BME280;22607;49.550;11.940;2023-03-03T06:10:47;97054.78;;;-0.92;91.54
36598;BME280;22607;49.550;11.940;2023-03-03T06:13:13;97046.56;;;-0.84;91.61
36598;BME280;22607;49.550;11.940;2023-03-03T06:15:40;97044.13;;;-0.86;91.71
36598;BME280;22607;49.550;11.940;2023-03-03T06:18:07;97050.63;;;-0.80;91.56
36598;BME280;22607;49.550;11.940;2023-03-03T06:20:44;97057.78;;;-0.71;91.87
36598;BME280;22607;49.550;11.940;2023-03-03T06:23:11;97064.06;;;-0.75;91.97
36598;BME280;22607;49.550;11.940;2023-03-03T06:25:38;97067.13;;;-0.83;93.41
36598;BME280;22607;49.550;11.940;2023-03-03T06:28:04;97060.91;;;-0.66;92.23
36598;BME280;22607;49.550;11.940;2023-03-03T06:30:31;97072.03;;;-0.50;91.11
36598;BME280;22607;49.550;11.940;2023-03-03T06:32:57;97065.09;;;-0.22;89.21
36598;BME280;22607;49.550;11.940;2023-03-03T06:35:24;97071.81;;;-0.20;90.03
36598;BME280;22607;49.550;11.940;2023-03-03T06:37:50;97076.19;;;-0.20;90.16
36598;BME280;22607;49.550;11.940;2023-03-03T06:40:17;97074.22;;;0.24;86.41
36598;BME280;22607;49.550;11.940;2023-03-03T06:42:44;97075.56;;;0.56;83.62
36598;BME280;22607;49.550;11.940;2023-03-03T06:45:11;97074.81;;;0.54;83.98
36598;BME280;22607;49.550;11.940;2023-03-03T06:47:37;97079.19;;;0.53;85.92
36598;BME280;22607;49.550;11.940;2023-03-03T06:50:04;97082.06;;;0.74;84.78
36598;BME280;22607;49.550;11.940;2023-03-03T06:52:31;97086.41;;;1.00;82.94
36598;BME280;22607;49.550;11.940;2023-03-03T06:55:00;97086.44;;;1.62;80.70
36598;BME280;22607;49.550;11.940;2023-03-03T06:57:29;97093.06;;;1.66;79.18
36598;BME280;22607;49.550;11.940;2023-03-03T07:00:14;97085.66;;;1.97;76.58
36598;BME280;22607;49.550;11.940;2023-03-03T07:02:42;97088.44;;;2.77;72.81
36598;BME280;22607;49.550;11.940;2023-03-03T07:05:13;97089.38;;;3.10;69.73
36598;BME280;22607;49.550;11.940;2023-03-03T07:07:42;97084.56;;;3.73;68.90
36598;BME280;22607;49.550;11.940;2023-03-03T07:10:27;97095.81;;;4.27;65.56
36598;BME280;22607;49.550;11.940;2023-03-03T07:13:03;97076.81;;;4.79;63.93
36598;BME280;22607;49.550;11.940;2023-03-03T07:15:33;97077.00;;;5.19;63.28
36598;BME280;22607;49.550;11.940;2023-03-03T07:18:00;97075.34;;;5.28;62.21
36598;BME280;22607;49.550;11.940;2023-03-03T07:20:35;97075.94;;;5.41;60.51
36598;BME280;22607;49.550;11.940;2023-03-03T07:23:20;97075.72;;;5.64;59.88
36598;BME280;22607;49.550;11.940;2023-03-03T07:25:49;97087.53;;;5.78;59.94
36598;BME280;22607;49.550;11.940;2023-03-03T07:28:22;97101.81;;;5.94;58.77
36598;BME280;22607;49.550;11.940;2023-03-03T07:30:51;97093.03;;;5.95;58.92
36598;BME280;22607;49.550;11.940;2023-03-03T07:33:43;97097.19;;;6.07;58.30
36598;BME280;22607;49.550;11.940;2023-03-03T07:36:35;97099.09;;;6.45;57.58
36598;BME280;22607;49.550;11.940;2023-03-03T07:42:27;97110.88;;;6.49;56.31
36598;BME280;22607;49.550;11.940;2023-03-03T07:45:00;97108.88;;;6.90;55.85
36598;BME280;22607;49.550;11.940;2023-03-03T07:47:30;97133.59;;;6.96;55.50
36598;BME280;22607;49.550;11.940;2023-03-03T07:50:13;97132.75;;;7.05;53.85
36598;BME280;22607;49.550;11.940;2023-03-03T07:52:59;97139.09;;;6.93;55.25
36598;BME280;22607;49.550;11.940;2023-03-03T07:55:29;97147.28;;;6.70;54.98
36598;BME280;22607;49.550;11.940;2023-03-03T07:58:13;97137.50;;;6.72;55.78
36598;BME280;22607;49.550;11.940;2023-03-03T08:03:18;97149.06;;;6.40;55.48
36598;BME280;22607;49.550;11.940;2023-03-03T08:05:47;97155.22;;;6.78;55.54
36598;BME280;22607;49.550;11.940;2023-03-03T08:08:33;97146.97;;;7.21;54.45
36598;BME280;22607;49.550;11.940;2023-03-03T08:11:03;97138.72;;;7.82;53.90
36598;BME280;22607;49.550;11.940;2023-03-03T08:18:46;97148.84;;;7.39;53.89
36598;BME280;22607;49.550;11.940;2023-03-03T08:21:15;97151.66;;;7.83;51.85
36598;BME280;22607;49.550;11.940;2023-03-03T08:23:44;97141.34;;;8.00;51.85
36598;BME280;22607;49.550;11.940;2023-03-03T08:26:11;97141.13;;;7.93;51.63
36598;BME280;22607;49.550;11.940;2023-03-03T08:28:44;97143.06;;;7.91;50.73
36598;BME280;22607;49.550;11.940;2023-03-03T08:31:10;97147.13;;;8.40;52.20
36598;BME280;22607;49.550;11.940;2023-03-03T08:33:53;97138.78;;;8.55;50.82
36598;BME280;22607;49.550;11.940;2023-03-03T08:36:19;97133.41;;;9.09;50.29
36598;BME280;22607;49.550;11.940;2023-03-03T08:38:46;97145.16;;;9.05;49.23
36598;BME280;22607;49.550;11.940;2023-03-03T08:41:14;97136.22;;;8.26;50.15
36598;BME280;22607;49.550;11.940;2023-03-03T08:43:46;97131.59;;;8.83;49.96
36598;BME280;22607;49.550;11.940;2023-03-03T08:46:13;97117.28;;;8.69;50.13
36598;BME280;22607;49.550;11.940;2023-03-03T08:48:46;97116.22;;;9.15;48.65
36598;BME280;22607;49.550;11.940;2023-03-03T08:51:13;97118.69;;;9.16;49.14
36598;BME280;22607;49.550;11.940;2023-03-03T08:53:44;97111.88;;;9.67;48.48
36598;BME280;22607;49.550;11.940;2023-03-03T08:56:13;97119.34;;;9.62;48.21
36598;BME280;22607;49.550;11.940;2023-03-03T08:58:40;97118.50;;;10.04;49.52
36598;BME280;22607;49.550;11.940;2023-03-03T09:01:27;97111.13;;;10.08;47.36
36598;BME280;22607;49.550;11.940;2023-03-03T09:03:53;97113.22;;;9.96;48.19
36598;BME280;22607;49.550;11.940;2023-03-03T09:06:20;97114.72;;;10.23;46.27
36598;BME280;22607;49.550;11.940;2023-03-03T09:08:47;97111.34;;;10.48;46.95
36598;BME280;22607;49.550;11.940;2023-03-03T09:11:23;97106.53;;;10.43;46.05
36598;BME280;22607;49.550;11.940;2023-03-03T09:14:01;97111.81;;;10.60;47.13
36598;BME280;22607;49.550;11.940;2023-03-03T09:16:36;97112.47;;;10.70;45.35
36598;BME280;22607;49.550;11.940;2023-03-03T09:19:41;97108.19;;;11.34;44.41
36598;BME280;22607;49.550;11.940;2023-03-03T09:22:21;97110.72;;;11.19;43.78
36598;BME280;22607;49.550;11.940;2023-03-03T09:24:50;97124.91;;;11.01;45.26
36598;BME280;22607;49.550;11.940;2023-03-03T09:27:30;97111.53;;;11.20;43.42
36598;BME280;22607;49.550;11.940;2023-03-03T09:32:53;97125.84;;;11.09;45.79
36598;BME280;22607;49.550;11.940;2023-03-03T09:35:38;97120.81;;;11.47;43.57
36598;BME280;22607;49.550;11.940;2023-03-03T09:38:26;97123.78;;;11.44;43.02
36598;BME280;22607;49.550;11.940;2023-03-03T09:43:52;97128.06;;;11.37;44.16
36598;BME280;22607;49.550;11.940;2023-03-03T09:46:32;97119.88;;;11.32;43.42
36598;BME280;22607;49.550;11.940;2023-03-03T09:51:45;97126.66;;;11.66;44.14
36598;BME280;22607;49.550;11.940;2023-03-03T09:54:27;97121.53;;;11.96;42.42
36598;BME280;22607;49.550;11.940;2023-03-03T09:57:07;97115.03;;;12.15;43.64
36598;BME280;22607;49.550;11.940;2023-03-03T10:05:07;97113.38;;;12.38;40.49
36598;BME280;22607;49.550;11.940;2023-03-03T10:08:21;97115.69;;;12.41;41.60
36598;BME280;22607;49.550;11.940;2023-03-03T10:11:07;97117.50;;;12.40;40.20
36598;BME280;22607;49.550;11.940;2023-03-03T10:13:49;97113.88;;;12.18;40.38
36598;BME280;22607;49.550;11.940;2023-03-03T10:19:03;97116.56;;;12.10;41.33
36598;BME280;22607;49.550;11.940;2023-03-03T10:25:01;97123.41;;;11.07;41.92
36598;BME280;22607;49.550;11.940;2023-03-03T10:33:28;97133.88;;;11.64;42.55
36598;BME280;22607;49.550;11.940;2023-03-03T10:39:12;97130.94;;;11.19;43.51
36598;BME280;22607;49.550;11.940;2023-03-03T10:47:20;97139.94;;;11.73;42.72
36598;BME280;22607;49.550;11.940;2023-03-03T10:55:31;97132.81;;;11.50;42.77
36598;BME280;22607;49.550;11.940;2023-03-03T10:58:26;97131.44;;;12.26;43.55
36598;BME280;22607;49.550;11.940;2023-03-03T11:04:07;97136.66;;;11.71;42.78
36598;BME280;22607;49.550;11.940;2023-03-03T11:06:45;97131.03;;;11.74;43.69
36598;BME280;22607;49.550;11.940;2023-03-03T11:09:39;97125.56;;;11.84;42.78
36598;BME280;22607;49.550;11.940;2023-03-03T11:12:54;97131.56;;;11.69;42.40
36598;BME280;22607;49.550;11.940;2023-03-03T11:18:05;97127.28;;;11.68;42.77
36598;BME280;22607;49.550;11.940;2023-03-03T11:23:31;97126.56;;;11.42;42.91
36598;BME280;22607;49.550;11.940;2023-03-03T11:31:55;97114.47;;;11.25;44.83
36598;BME280;22607;49.550;11.940;2023-03-03T11:37:55;97108.25;;;11.18;45.92
36598;BME280;22607;49.550;11.940;2023-03-03T11:40:46;97103.56;;;11.76;43.82
36598;BME280;22607;49.550;11.940;2023-03-03T11:44:10;97100.41;;;11.49;42.70
36598;BME280;22607;49.550;11.940;2023-03-03T11:49:13;97095.38;;;11.71;42.39
36598;BME280;22607;49.550;11.940;2023-03-03T11:54:19;97089.53;;;11.61;42.95
36598;BME280;22607;49.550;11.940;2023-03-03T11:56:48;97085.84;;;11.70;42.82
36598;BME280;22607;49.550;11.940;2023-03-03T11:59:40;97083.53;;;11.75;42.36
36598;BME280;22607;49.550;11.940;2023-03-03T12:05:07;97077.47;;;11.98;42.40
36598;BME280;22607;49.550;11.940;2023-03-03T12:07:52;97063.50;;;12.21;42.31
36598;BME280;22607;49.550;11.940;2023-03-03T12:10:44;97064.50;;;11.88;44.19
36598;BME280;22607;49.550;11.940;2023-03-03T12:22:15;97060.72;;;11.67;43.73
36598;BME280;22607;49.550;11.940;2023-03-03T12:27:52;97055.13;;;11.31;44.01
36598;BME280;22607;49.550;11.940;2023-03-03T12:36:53;97041.84;;;11.55;43.76
36598;BME280;22607;49.550;11.940;2023-03-03T12:47:49;97035.53;;;11.65;43.56
36598;BME280;22607;49.550;11.940;2023-03-03T12:50:35;97032.19;;;11.16;43.44
36598;BME280;22607;49.550;11.940;2023-03-03T12:55:57;97033.75;;;11.34;41.78
36598;BME280;22607;49.550;11.940;2023-03-03T13:06:30;97026.41;;;12.07;40.70
36598;BME280;22607;49.550;11.940;2023-03-03T13:14:36;97033.03;;;11.16;40.64
36598;BME280;22607;49.550;11.940;2023-03-03T13:20:11;97023.75;;;11.84;42.07
36598;BME280;22607;49.550;11.940;2023-03-03T13:23:14;97014.84;;;11.85;40.94
36598;BME280;22607;49.550;11.940;2023-03-03T13:26:00;97028.13;;;11.92;41.55
36598;BME280;22607;49.550;11.940;2023-03-03T13:28:33;97022.06;;;12.15;40.48
36598;BME280;22607;49.550;11.940;2023-03-03T13:31:09;97011.19;;;12.18;40.19
36598;BME280;22607;49.550;11.940;2023-03-03T13:33:43;97017.59;;;11.92;39.97
36598;BME280;22607;49.550;11.940;2023-03-03T13:36:15;97024.72;;;11.60;42.13
36598;BME280;22607;49.550;11.940;2023-03-03T13:38:54;97015.34;;;11.34;42.57
36598;BME280;22607;49.550;11.940;2023-03-03T13:41:29;97018.91;;;11.41;41.46
36598;BME280;22607;49.550;11.940;2023-03-03T13:44:09;97012.88;;;11.64;42.71
36598;BME280;22607;49.550;11.940;2023-03-03T13:49:22;97017.53;;;12.00;40.40
36598;BME280;22607;49.550;11.940;2023-03-03T14:00:26;97009.59;;;11.62;40.34
36598;BME280;22607;49.550;11.940;2023-03-03T14:03:10;97005.97;;;11.39;39.16
36598;BME280;22607;49.550;11.940;2023-03-03T14:05:45;97005.88;;;11.24;39.62
36598;BME280;22607;49.550;11.940;2023-03-03T14:11:19;96993.91;;;11.45;38.12
36598;BME280;22607;49.550;11.940;2023-03-03T14:14:18;96994.50;;;11.55;38.57
36598;BME280;22607;49.550;11.940;2023-03-03T14:20:37;96988.28;;;11.57;37.44
36598;BME280;22607;49.550;11.940;2023-03-03T14:25:24;96983.28;;;11.62;38.75
36598;BME280;22607;49.550;11.940;2023-03-03T14:28:07;96989.97;;;11.73;38.75
36598;BME280;22607;49.550;11.940;2023-03-03T14:30:40;96986.56;;;12.11;36.70
36598;BME280;22607;49.550;11.940;2023-03-03T14:35:47;96977.75;;;11.57;38.00
36598;BME280;22607;49.550;11.940;2023-03-03T14:38:19;96975.78;;;11.50;39.37
36598;BME280;22607;49.550;11.940;2023-03-03T14:41:20;96979.66;;;11.63;39.06
36598;BME280;22607;49.550;11.940;2023-03-03T14:43:57;96973.16;;;11.50;38.80
36598;BME280;22607;49.550;11.940;2023-03-03T14:46:31;96973.97;;;11.27;39.88
36598;BME280;22607;49.550;11.940;2023-03-03T14:49:02;96975.63;;;11.28;40.47
36598;BME280;22607;49.550;11.940;2023-03-03T14:51:46;96968.41;;;11.22;40.69
36598;BME280;22607;49.550;11.940;2023-03-03T14:54:24;96976.38;;;11.37;40.07
36598;BME280;22607;49.550;11.940;2023-03-03T14:57:14;96965.28;;;11.27;40.00
36598;BME280;22607;49.550;11.940;2023-03-03T15:00:01;96970.78;;;11.40;41.21
36598;BME280;22607;49.550;11.940;2023-03-03T15:07:48;96971.94;;;11.38;42.02
36598;BME280;22607;49.550;11.940;2023-03-03T15:10:26;96969.66;;;11.35;42.50
36598;BME280;22607;49.550;11.940;2023-03-03T15:12:53;96961.78;;;11.35;41.60
36598;BME280;22607;49.550;11.940;2023-03-03T15:15:22;96968.06;;;11.25;41.99
36598;BME280;22607;49.550;11.940;2023-03-03T15:17:56;96971.31;;;11.27;42.61
36598;BME280;22607;49.550;11.940;2023-03-03T15:20:44;96962.69;;;11.19;43.60
36598;BME280;22607;49.550;11.940;2023-03-03T15:32:14;96976.84;;;10.77;44.89
36598;BME280;22607;49.550;11.940;2023-03-03T15:35:24;96977.53;;;10.63;44.98
36598;BME280;22607;49.550;11.940;2023-03-03T15:38:02;96978.50;;;10.62;45.50
36598;BME280;22607;49.550;11.940;2023-03-03T15:40:41;96983.44;;;10.57;45.34
36598;BME280;22607;49.550;11.940;2023-03-03T15:43:38;96975.09;;;10.36;45.28
36598;BME280;22607;49.550;11.940;2023-03-03T15:49:47;96978.41;;;10.30;45.65
36598;BME280;22607;49.550;11.940;2023-03-03T15:54:59;96982.16;;;10.28;46.91
36598;BME280;22607;49.550;11.940;2023-03-03T16:03:01;96981.06;;;9.97;47.65
36598;BME280;22607;49.550;11.940;2023-03-03T16:05:43;96977.47;;;9.81;48.38
36598;BME280;22607;49.550;11.940;2023-03-03T16:08:22;96984.16;;;9.76;48.53
36598;BME280;22607;49.550;11.940;2023-03-03T16:16:27;96989.25;;;9.69;49.33
36598;BME280;22607;49.550;11.940;2023-03-03T16:18:59;96988.72;;;9.49;50.05
36598;BME280;22607;49.550;11.940;2023-03-03T16:24:20;97006.56;;;9.37;50.78
36598;BME280;22607;49.550;11.940;2023-03-03T16:27:05;97009.28;;;9.10;51.89
36598;BME280;22607;49.550;11.940;2023-03-03T16:32:23;97010.19;;;8.92;51.34
36598;BME280;22607;49.550;11.940;2023-03-03T16:35:05;97022.28;;;8.85;51.62
36598;BME280;22607;49.550;11.940;2023-03-03T16:43:10;97032.94;;;8.57;52.27
36598;BME280;22607;49.550;11.940;2023-03-03T16:45:42;97040.69;;;8.49;52.72
36598;BME280;22607;49.550;11.940;2023-03-03T16:48:42;97044.22;;;8.39;52.72
36598;BME280;22607;49.550;11.940;2023-03-03T16:52:16;97044.72;;;8.17;53.74